createdAt,value
2022-10-19T00:01:47.517Z,3.80
2022-10-19T00:04:14.842Z,4.10
2022-10-19T00:06:42.191Z,4.25
2022-10-19T00:09:10.639Z,3.47
2022-10-19T00:11:39.172Z,3.55
2022-10-19T00:14:06.709Z,3.10
2022-10-19T00:16:35.427Z,3.15
2022-10-19T00:19:05.308Z,2.88
2022-10-19T00:21:32.624Z,2.38
2022-10-19T00:23:59.998Z,3.05
2022-10-19T00:26:27.384Z,3.25
2022-10-19T00:28:55.389Z,2.95
2022-10-19T00:31:23.022Z,3.10
2022-10-19T00:33:50.465Z,2.83
2022-10-19T00:36:20.800Z,2.67
2022-10-19T00:38:48.685Z,3.08
2022-10-19T00:41:16.244Z,2.60
2022-10-19T00:43:54.271Z,2.30
2022-10-19T00:46:21.714Z,2.58
2022-10-19T00:51:23.286Z,3.40
2022-10-19T00:53:50.638Z,2.47
2022-10-19T00:56:18.590Z,2.50
2022-10-19T00:58:46.290Z,2.63
2022-10-19T01:01:15.435Z,2.60
2022-10-19T01:03:43.036Z,3.00
2022-10-19T01:06:11.111Z,2.45
2022-10-19T01:08:39.781Z,2.58
2022-10-19T01:11:15.568Z,2.33
2022-10-19T01:13:47.067Z,2.28
2022-10-19T01:16:17.341Z,2.40
2022-10-19T01:18:46.750Z,2.25
2022-10-19T01:21:21.366Z,2.17
2022-10-19T01:24:15.830Z,2.28
2022-10-19T01:26:58.092Z,2.08
2022-10-19T01:29:32.560Z,2.13
2022-10-19T01:32:03.502Z,1.88
2022-10-19T01:37:00.185Z,2.47
2022-10-19T01:39:33.290Z,1.95
2022-10-19T01:42:03.322Z,1.80
2022-10-19T01:44:36.772Z,1.85
2022-10-19T01:47:07.709Z,2.08
2022-10-19T01:49:36.990Z,1.77
2022-10-19T01:52:05.860Z,1.90
2022-10-19T01:54:37.087Z,1.60
2022-10-19T01:57:06.261Z,2.30
2022-10-19T01:59:34.353Z,2.17
2022-10-19T02:02:03.956Z,1.48
2022-10-19T02:04:34.081Z,1.55
2022-10-19T02:07:02.982Z,1.70
2022-10-19T02:09:30.405Z,1.92
2022-10-19T02:11:59.139Z,1.92
2022-10-19T02:14:28.635Z,2.33
2022-10-19T02:16:58.369Z,1.50
2022-10-19T02:19:25.697Z,1.58
2022-10-19T02:21:54.887Z,1.60
2022-10-19T02:24:22.256Z,1.52
2022-10-19T02:26:50.154Z,2.20
2022-10-19T02:29:17.659Z,1.90
2022-10-19T02:31:45.355Z,1.92
2022-10-19T02:34:13.105Z,1.88
2022-10-19T02:36:40.445Z,1.60
2022-10-19T02:39:09.527Z,1.88
2022-10-19T02:41:39.133Z,1.90
2022-10-19T02:44:08.600Z,2.47
2022-10-19T02:46:38.570Z,2.28
2022-10-19T02:49:07.371Z,1.58
2022-10-19T02:51:35.648Z,2.03
2022-10-19T02:54:05.205Z,1.77
2022-10-19T02:56:34.412Z,1.80
2022-10-19T02:59:02.022Z,1.77
2022-10-19T03:01:29.384Z,2.47
2022-10-19T03:03:56.732Z,1.83
2022-10-19T03:06:24.084Z,2.00
2022-10-19T03:08:51.945Z,1.67
2022-10-19T03:11:19.292Z,2.03
2022-10-19T03:16:20.348Z,1.88
2022-10-19T03:18:48.914Z,1.50
2022-10-19T03:21:16.275Z,1.67
2022-10-19T03:23:43.634Z,1.30
2022-10-19T03:26:14.270Z,1.30
2022-10-19T03:28:42.481Z,1.50
2022-10-19T03:31:11.376Z,1.48
2022-10-19T03:33:38.813Z,1.50
2022-10-19T03:36:16.586Z,1.40
2022-10-19T03:38:44.087Z,1.30
2022-10-19T03:41:11.795Z,1.60
2022-10-19T03:43:39.134Z,1.58
2022-10-19T03:46:06.616Z,1.48
2022-10-19T03:48:35.561Z,1.05
2022-10-19T03:51:03.934Z,1.20
2022-10-19T03:53:33.187Z,1.73
2022-10-19T03:56:04.741Z,0.90
2022-10-19T03:58:32.935Z,0.90
2022-10-19T04:01:00.352Z,1.00
2022-10-19T04:03:27.780Z,1.65
2022-10-19T04:06:03.690Z,1.50
2022-10-19T04:08:31.168Z,0.77
2022-10-19T04:11:02.117Z,1.05
2022-10-19T04:15:56.762Z,2.45
2022-10-19T04:18:24.350Z,1.27
2022-10-19T04:20:56.477Z,1.20
2022-10-19T04:23:27.182Z,1.23
2022-10-19T04:25:59.914Z,1.30
2022-10-19T04:28:27.393Z,1.13
2022-10-19T04:30:54.777Z,1.23
2022-10-19T04:33:22.090Z,1.15
2022-10-19T04:35:49.419Z,1.00
2022-10-19T04:38:16.792Z,1.27
2022-10-19T04:40:45.433Z,1.17
2022-10-19T04:43:12.809Z,1.10
2022-10-19T04:45:40.128Z,1.10
2022-10-19T04:48:07.626Z,1.13
2022-10-19T04:50:35.006Z,1.20
2022-10-19T04:53:02.390Z,0.88
2022-10-19T04:55:29.799Z,1.60
2022-10-19T04:57:58.513Z,0.95
2022-10-19T05:00:25.879Z,1.33
2022-10-19T05:02:53.216Z,1.15
2022-10-19T05:05:20.575Z,1.23
2022-10-19T05:07:49.471Z,1.13
2022-10-19T05:10:16.892Z,1.50
2022-10-19T05:12:44.258Z,1.00
2022-10-19T05:15:13.074Z,0.90
2022-10-19T05:17:40.414Z,0.90
2022-10-19T05:20:08.475Z,0.77
2022-10-19T05:22:35.857Z,0.88
2022-10-19T05:25:03.204Z,0.90
2022-10-19T05:27:30.652Z,0.82
2022-10-19T05:29:58.047Z,0.77
2022-10-19T05:32:27.836Z,0.73
2022-10-19T05:34:55.266Z,0.70
2022-10-19T05:37:22.614Z,0.68
2022-10-19T05:39:49.983Z,1.00
2022-10-19T05:42:17.298Z,0.60
2022-10-19T05:44:44.656Z,0.65
2022-10-19T05:47:12.001Z,0.90
2022-10-19T05:49:40.703Z,0.90
2022-10-19T05:52:08.063Z,0.95
2022-10-19T05:54:36.066Z,0.70
2022-10-19T05:57:03.475Z,1.00
2022-10-19T05:59:31.007Z,0.80
2022-10-19T06:01:58.493Z,0.90
2022-10-19T06:04:26.185Z,0.60
2022-10-19T06:06:54.931Z,1.10
2022-10-19T06:09:22.316Z,0.77
2022-10-19T06:11:49.707Z,1.00
2022-10-19T06:14:17.320Z,1.20
2022-10-19T06:16:45.733Z,0.80
2022-10-19T06:19:13.127Z,0.77
2022-10-19T06:21:43.257Z,0.80
2022-10-19T06:24:14.472Z,0.90
2022-10-19T06:26:41.907Z,0.63
2022-10-19T06:29:09.283Z,0.90
2022-10-19T06:31:37.219Z,0.60
2022-10-19T06:34:05.014Z,0.80
2022-10-19T06:36:32.687Z,0.90
2022-10-19T06:39:01.590Z,0.82
2022-10-19T06:41:31.140Z,0.85
2022-10-19T06:43:58.514Z,0.93
2022-10-19T06:46:26.547Z,0.80
2022-10-19T06:48:54.834Z,0.70
2022-10-19T06:51:22.623Z,0.70
2022-10-19T06:53:54.264Z,0.90
2022-10-19T06:56:25.451Z,0.90
2022-10-19T06:58:54.660Z,0.98
2022-10-19T07:01:22.483Z,0.90
2022-10-19T07:03:50.903Z,0.63
2022-10-19T07:06:18.632Z,1.77
2022-10-19T07:08:46.102Z,0.73
2022-10-19T07:11:15.615Z,0.73
2022-10-19T07:13:43.032Z,0.88
2022-10-19T07:16:16.078Z,0.90
2022-10-19T07:18:47.123Z,1.20
2022-10-19T07:21:15.256Z,0.80
2022-10-19T07:23:43.511Z,1.00
2022-10-19T07:26:12.883Z,0.77
2022-10-19T07:28:41.086Z,1.00
2022-10-19T07:31:10.093Z,1.15
2022-10-19T07:33:38.938Z,1.25
2022-10-19T07:36:07.451Z,0.90
2022-10-19T07:38:35.327Z,0.90
2022-10-19T07:41:04.136Z,1.10
2022-10-19T07:43:31.460Z,0.98
2022-10-19T07:45:59.617Z,1.10
2022-10-19T07:48:27.042Z,0.63
2022-10-19T07:50:55.772Z,1.52
2022-10-19T07:53:23.551Z,0.80
2022-10-19T07:55:50.914Z,1.05
2022-10-19T07:58:18.300Z,2.50
2022-10-19T08:00:45.733Z,0.77
2022-10-19T08:06:02.482Z,0.80
2022-10-19T08:08:30.139Z,0.90
2022-10-19T08:10:57.799Z,0.80
2022-10-19T08:13:25.324Z,0.88
2022-10-19T08:15:52.703Z,0.80
2022-10-19T08:18:22.378Z,1.00
2022-10-19T08:20:49.863Z,0.80
2022-10-19T08:23:18.577Z,0.90
2022-10-19T08:25:45.982Z,0.70
2022-10-19T08:28:13.399Z,0.63
2022-10-19T08:30:40.777Z,0.88
2022-10-19T08:33:08.253Z,1.00
2022-10-19T08:35:36.043Z,0.90
2022-10-19T08:38:03.487Z,0.98
2022-10-19T08:40:32.177Z,1.42
2022-10-19T08:43:03.298Z,0.90
2022-10-19T08:48:21.212Z,0.93
2022-10-19T08:50:48.978Z,1.40
2022-10-19T08:53:17.437Z,0.80
2022-10-19T08:55:50.852Z,0.95
2022-10-19T08:58:25.407Z,0.82
2022-10-19T09:00:56.067Z,0.80
2022-10-19T09:03:37.631Z,0.98
2022-10-19T09:06:19.978Z,0.73
2022-10-19T09:08:47.881Z,0.93
2022-10-19T09:11:19.060Z,0.70
2022-10-19T09:14:05.923Z,1.13
2022-10-19T09:16:34.721Z,0.90
2022-10-19T09:19:02.170Z,0.98
2022-10-19T09:21:40.904Z,1.02
2022-10-19T09:24:17.313Z,1.00
2022-10-19T09:26:51.698Z,0.80
2022-10-19T09:29:22.687Z,0.90
2022-10-19T09:31:52.523Z,1.10
2022-10-19T09:34:22.763Z,0.80
2022-10-19T09:36:52.491Z,1.35
2022-10-19T09:39:20.173Z,1.00
2022-10-19T09:41:50.868Z,0.90
2022-10-19T09:44:18.422Z,0.70
2022-10-19T09:46:51.944Z,0.90
2022-10-19T09:49:19.762Z,1.00
2022-10-19T09:51:50.473Z,0.85
2022-10-19T09:56:53.339Z,1.20
2022-10-19T09:59:23.914Z,1.80
2022-10-19T10:02:00.684Z,0.63
2022-10-19T10:04:28.017Z,0.90
2022-10-19T10:06:55.652Z,1.35
2022-10-19T10:09:25.870Z,0.70
2022-10-19T10:14:25.093Z,0.65
2022-10-19T10:16:55.833Z,0.57
2022-10-19T10:21:55.663Z,0.43
2022-10-19T10:24:24.564Z,0.60
2022-10-19T10:26:52.983Z,0.50
2022-10-19T10:29:21.393Z,0.63
2022-10-19T10:31:51.598Z,0.50
2022-10-19T10:34:28.699Z,0.65
2022-10-19T10:37:06.683Z,0.82
2022-10-19T10:39:34.326Z,0.68
2022-10-19T10:42:05.687Z,0.47
2022-10-19T10:44:36.455Z,0.50
2022-10-19T10:49:34.489Z,0.38
2022-10-19T10:54:31.121Z,0.40
2022-10-19T10:57:05.593Z,0.40
2022-10-19T10:59:39.314Z,0.40
2022-10-19T11:02:13.716Z,0.38
2022-10-19T11:04:47.444Z,0.38
2022-10-19T11:07:18.537Z,0.30
2022-10-19T11:09:49.684Z,0.60
2022-10-19T11:12:20.036Z,0.70
2022-10-19T11:14:48.257Z,0.80
2022-10-19T11:17:17.422Z,0.40
2022-10-19T11:19:46.299Z,0.50
2022-10-19T11:22:22.501Z,0.40
2022-10-19T11:24:59.158Z,0.50
2022-10-19T11:27:30.303Z,0.35
2022-10-19T11:30:03.346Z,0.30
2022-10-19T11:32:36.672Z,0.47
2022-10-19T11:35:16.031Z,0.60
2022-10-19T11:38:00.541Z,0.40
2022-10-19T11:40:40.282Z,0.50
2022-10-19T11:43:13.494Z,0.55
2022-10-19T11:45:47.972Z,0.40
2022-10-19T11:48:21.895Z,0.40
2022-10-19T11:50:54.542Z,0.40
2022-10-19T11:53:32.342Z,0.40
2022-10-19T11:56:02.357Z,0.50
2022-10-19T11:58:35.632Z,0.40
2022-10-19T12:01:10.028Z,0.32
2022-10-19T12:03:55.069Z,0.30
2022-10-19T12:06:29.068Z,0.43
2022-10-19T12:09:06.028Z,0.60
2022-10-19T12:11:39.631Z,0.50
2022-10-19T12:14:10.333Z,0.47
2022-10-19T12:16:39.168Z,0.60
2022-10-19T12:19:07.519Z,0.50
2022-10-19T12:21:38.447Z,0.50
2022-10-19T12:24:07.353Z,0.50
2022-10-19T12:26:36.415Z,0.50
2022-10-19T12:29:06.099Z,0.68
2022-10-19T12:31:34.054Z,0.63
2022-10-19T12:34:03.169Z,0.50
2022-10-19T12:36:33.935Z,0.40
2022-10-19T12:39:07.523Z,0.47
2022-10-19T12:41:40.048Z,0.40
2022-10-19T12:44:16.309Z,0.57
2022-10-19T12:46:49.623Z,0.40
2022-10-19T12:49:36.034Z,0.40
2022-10-19T12:52:03.831Z,0.60
2022-10-19T12:54:33.447Z,0.50
2022-10-19T12:57:02.069Z,0.50
2022-10-19T12:59:31.111Z,0.50
2022-10-19T13:01:59.187Z,0.57
2022-10-19T13:04:28.004Z,0.70
2022-10-19T13:07:01.351Z,0.60
2022-10-19T13:09:31.003Z,0.40
2022-10-19T13:12:21.449Z,0.47
2022-10-19T13:14:51.411Z,0.20
2022-10-19T13:17:34.297Z,0.40
2022-10-19T13:20:16.921Z,0.50
2022-10-19T13:22:45.470Z,0.50
2022-10-19T13:25:23.423Z,0.40
2022-10-19T13:27:51.742Z,0.60
2022-10-19T13:30:38.074Z,0.60
2022-10-19T13:33:20.349Z,0.50
2022-10-19T13:35:49.338Z,0.55
2022-10-19T13:38:31.640Z,0.52
2022-10-19T13:41:07.211Z,0.63
2022-10-19T13:43:36.066Z,0.65
2022-10-19T13:46:06.259Z,0.85
2022-10-19T13:48:38.649Z,0.60
2022-10-19T13:51:14.194Z,0.75
2022-10-19T13:53:45.249Z,0.63
2022-10-19T13:56:24.059Z,0.60
2022-10-19T13:59:03.542Z,0.85
2022-10-19T14:01:37.889Z,1.00
2022-10-19T14:04:14.866Z,0.55
2022-10-19T14:06:44.565Z,0.60
2022-10-19T14:09:27.833Z,0.57
2022-10-19T14:12:04.298Z,0.50
2022-10-19T14:14:31.714Z,0.68
2022-10-19T14:17:03.132Z,0.40
2022-10-19T14:19:32.549Z,0.70
2022-10-19T14:22:02.066Z,0.40
2022-10-19T14:24:31.501Z,0.60
2022-10-19T14:27:00.691Z,0.57
2022-10-19T14:29:28.039Z,0.70
2022-10-19T14:31:55.469Z,0.73
2022-10-19T14:34:22.956Z,0.60
2022-10-19T14:36:50.834Z,0.70
2022-10-19T14:39:31.054Z,1.00
2022-10-19T14:42:04.156Z,0.60
2022-10-19T14:44:37.260Z,0.45
2022-10-19T14:47:07.623Z,0.57
2022-10-19T14:49:35.032Z,0.70
2022-10-19T14:52:03.768Z,0.60
2022-10-19T14:54:36.152Z,1.08
2022-10-19T14:57:06.298Z,0.73
2022-10-19T14:59:35.828Z,0.70
2022-10-19T15:02:04.692Z,1.00
2022-10-19T15:04:32.776Z,0.70
2022-10-19T15:07:02.149Z,1.20
2022-10-19T15:09:37.269Z,0.70
2022-10-19T15:12:07.962Z,0.80
2022-10-19T15:14:36.090Z,0.80
2022-10-19T15:17:05.717Z,0.80
2022-10-19T15:19:34.374Z,0.82
2022-10-19T15:22:13.399Z,0.70
2022-10-19T15:24:41.242Z,0.70
2022-10-19T15:27:11.766Z,1.05
2022-10-19T15:29:40.171Z,0.80
2022-10-19T15:32:14.510Z,0.70
2022-10-19T15:34:42.442Z,0.95
2022-10-19T15:37:17.614Z,0.77
2022-10-19T15:39:45.806Z,0.70
2022-10-19T15:42:24.667Z,0.80
2022-10-19T15:44:52.092Z,0.80
2022-10-19T15:47:21.245Z,0.70
2022-10-19T15:50:01.333Z,0.60
2022-10-19T15:52:29.860Z,0.55
2022-10-19T15:54:57.958Z,0.60
2022-10-19T15:57:27.535Z,0.60
2022-10-19T15:59:55.723Z,0.80
2022-10-19T16:02:25.074Z,0.50
2022-10-19T16:04:53.137Z,1.00
2022-10-19T16:07:22.664Z,0.95
2022-10-19T16:09:49.990Z,0.75
2022-10-19T16:12:17.322Z,0.70
2022-10-19T16:14:46.003Z,0.88
2022-10-19T16:17:13.510Z,1.00
2022-10-19T16:19:40.903Z,0.85
2022-10-19T16:22:08.318Z,0.70
2022-10-19T16:24:35.705Z,0.82
2022-10-19T16:27:03.083Z,1.15
2022-10-19T16:29:30.419Z,0.90
2022-10-19T16:31:59.099Z,1.15
2022-10-19T16:34:26.537Z,1.20
2022-10-19T16:36:54.451Z,0.70
2022-10-19T16:39:21.831Z,1.00
2022-10-19T16:41:49.182Z,1.02
2022-10-19T16:44:16.820Z,1.27
2022-10-19T16:46:44.198Z,1.10
2022-10-19T16:49:12.902Z,1.20
2022-10-19T16:51:40.508Z,1.10
2022-10-19T16:54:08.912Z,1.52
2022-10-19T16:56:36.661Z,0.95
2022-10-19T16:59:05.423Z,1.60
2022-10-19T17:01:33.617Z,1.20
2022-10-19T17:04:01.380Z,1.60
2022-10-19T17:06:30.319Z,1.63
2022-10-19T17:11:45.448Z,1.85
2022-10-19T17:14:13.318Z,1.65
2022-10-19T17:16:40.788Z,1.77
2022-10-19T17:19:09.123Z,2.10
2022-10-19T17:21:39.203Z,2.75
2022-10-19T17:24:07.578Z,3.00
2022-10-19T17:26:35.998Z,2.92
2022-10-19T17:29:03.393Z,2.78
2022-10-19T17:31:30.831Z,4.03
2022-10-19T17:33:58.288Z,4.22
2022-10-19T17:36:27.449Z,4.30
2022-10-19T17:38:56.931Z,4.30
2022-10-19T17:41:24.276Z,4.47
2022-10-19T17:43:52.570Z,4.50
2022-10-19T17:46:20.590Z,5.57
2022-10-19T17:48:47.934Z,5.80
2022-10-19T17:51:16.477Z,5.30
2022-10-19T17:53:43.858Z,4.30
2022-10-19T17:56:13.733Z,4.43
2022-10-19T17:58:41.258Z,4.60
2022-10-19T18:01:09.182Z,4.40
2022-10-19T18:03:37.357Z,4.13
2022-10-19T18:06:09.639Z,4.15
2022-10-19T18:08:39.246Z,3.88
2022-10-19T18:11:08.029Z,3.38
2022-10-19T18:16:10.083Z,3.92
2022-10-19T18:18:38.940Z,4.70
2022-10-19T18:21:06.922Z,4.38
2022-10-19T18:23:34.328Z,4.88
2022-10-19T18:26:01.804Z,4.03
2022-10-19T18:28:30.758Z,3.80
2022-10-19T18:31:04.693Z,4.78
2022-10-19T18:33:32.580Z,4.15
2022-10-19T18:36:00.104Z,4.50
2022-10-19T18:38:27.508Z,6.05
2022-10-19T18:40:56.076Z,5.97
2022-10-19T18:43:23.403Z,5.80
2022-10-19T18:45:53.834Z,5.95
2022-10-19T18:48:22.966Z,4.53
2022-10-19T18:50:50.406Z,4.40
2022-10-19T18:53:18.247Z,4.68
2022-10-19T18:55:45.833Z,4.50
2022-10-19T18:58:13.251Z,4.75
2022-10-19T19:00:45.609Z,4.60
2022-10-19T19:03:13.247Z,3.78
2022-10-19T19:05:41.951Z,5.00
2022-10-19T19:08:09.287Z,4.40
2022-10-19T19:10:36.648Z,4.93
2022-10-19T19:13:03.994Z,4.75
2022-10-19T19:15:31.372Z,5.10
2022-10-19T19:17:58.816Z,4.88
2022-10-19T19:20:26.214Z,6.25
2022-10-19T19:22:54.980Z,5.65
2022-10-19T19:25:22.337Z,5.32
2022-10-19T19:27:49.723Z,5.40
2022-10-19T19:30:17.149Z,6.55
2022-10-19T19:32:44.508Z,6.18
2022-10-19T19:35:11.862Z,7.47
2022-10-19T19:37:39.256Z,6.13
2022-10-19T19:40:09.014Z,5.43
2022-10-19T19:42:36.390Z,5.30
2022-10-19T19:45:03.922Z,6.35
2022-10-19T19:47:31.294Z,5.68
2022-10-19T19:49:58.705Z,4.97
2022-10-19T19:52:26.131Z,4.90
2022-10-19T19:54:53.506Z,5.80
2022-10-19T19:57:22.446Z,4.43
2022-10-19T19:59:49.758Z,4.57
2022-10-19T20:02:17.351Z,3.85
2022-10-19T20:04:44.703Z,4.30
2022-10-19T20:07:12.053Z,4.60
2022-10-19T20:09:39.438Z,4.32
2022-10-19T20:12:06.948Z,3.85
2022-10-19T20:14:35.665Z,4.80
2022-10-19T20:17:02.998Z,3.80
2022-10-19T20:19:30.393Z,4.82
2022-10-19T20:22:00.090Z,4.07
2022-10-19T20:24:27.456Z,3.95
2022-10-19T20:26:55.782Z,4.88
2022-10-19T20:29:23.227Z,4.65
2022-10-19T20:31:51.887Z,4.55
2022-10-19T20:34:23.139Z,3.85
2022-10-19T20:36:51.337Z,4.20
2022-10-19T20:39:18.691Z,3.17
2022-10-19T20:41:46.065Z,3.72
2022-10-19T20:44:13.435Z,3.67
2022-10-19T20:46:40.826Z,3.30
2022-10-19T20:49:11.203Z,3.35
2022-10-19T20:51:39.246Z,3.58
2022-10-19T20:54:07.541Z,3.63
2022-10-19T20:56:36.198Z,3.88
2022-10-19T20:59:05.089Z,3.70
2022-10-19T21:01:33.695Z,4.53
2022-10-19T21:04:03.156Z,3.45
2022-10-19T21:06:33.857Z,3.50
2022-10-19T21:09:01.529Z,3.40
2022-10-19T21:11:29.997Z,3.33
2022-10-19T21:13:58.003Z,3.30
2022-10-19T21:16:28.285Z,3.60
2022-10-19T21:18:55.734Z,3.72
2022-10-19T21:21:24.033Z,3.70
2022-10-19T21:23:55.081Z,3.70
2022-10-19T21:26:22.725Z,3.22
2022-10-19T21:28:52.982Z,3.58
2022-10-19T21:31:20.854Z,3.53
2022-10-19T21:33:48.259Z,3.63
2022-10-19T21:36:16.069Z,3.67
2022-10-19T21:38:43.743Z,3.47
2022-10-19T21:41:13.699Z,3.55
2022-10-19T21:43:41.131Z,3.70
2022-10-19T21:46:09.371Z,3.42
2022-10-19T21:48:36.737Z,3.72
2022-10-19T21:51:12.083Z,4.13
2022-10-19T21:53:39.419Z,3.30
2022-10-19T21:56:07.047Z,3.80
2022-10-19T21:58:35.759Z,3.90
2022-10-19T22:01:05.003Z,3.70
2022-10-19T22:03:32.334Z,3.38
2022-10-19T22:05:59.690Z,3.53
2022-10-19T22:08:27.339Z,3.50
2022-10-19T22:10:54.707Z,3.30
2022-10-19T22:13:22.073Z,2.90
2022-10-19T22:15:50.786Z,2.95
2022-10-19T22:18:18.109Z,3.28
2022-10-19T22:20:45.485Z,3.25
2022-10-19T22:23:12.813Z,3.15
2022-10-19T22:25:40.177Z,3.20
2022-10-19T22:28:07.512Z,3.03
2022-10-19T22:30:34.886Z,3.17
2022-10-19T22:33:03.651Z,2.95
2022-10-19T22:35:31.033Z,2.72
2022-10-19T22:37:58.383Z,2.50
2022-10-19T22:40:25.739Z,2.50
2022-10-19T22:42:53.117Z,2.70
2022-10-19T22:45:20.470Z,2.40
2022-10-19T22:47:47.886Z,2.38
2022-10-19T22:50:16.609Z,2.47
2022-10-19T22:52:43.976Z,2.40
2022-10-19T22:55:11.356Z,2.50
2022-10-19T22:57:38.701Z,2.40
2022-10-19T23:00:06.586Z,2.45
2022-10-19T23:02:34.323Z,1.88
2022-10-19T23:05:01.895Z,2.35
2022-10-19T23:07:30.605Z,1.90
2022-10-19T23:09:57.918Z,1.75
2022-10-19T23:12:25.291Z,2.53
2022-10-19T23:14:52.629Z,2.13
2022-10-19T23:17:20.001Z,2.00
2022-10-19T23:19:47.363Z,2.20
2022-10-19T23:22:14.707Z,1.92
2022-10-19T23:24:43.430Z,2.08
2022-10-19T23:27:10.837Z,2.13
2022-10-19T23:29:38.197Z,2.00
2022-10-19T23:32:05.742Z,2.45
2022-10-19T23:34:33.078Z,2.10
2022-10-19T23:37:00.464Z,2.00
2022-10-19T23:39:27.826Z,1.80
2022-10-19T23:41:56.537Z,1.77
2022-10-19T23:44:23.905Z,1.83
2022-10-19T23:46:51.323Z,1.92
2022-10-19T23:49:18.719Z,1.83
2022-10-19T23:51:46.105Z,2.10
2022-10-19T23:54:13.460Z,2.03
2022-10-19T23:56:40.840Z,2.10
2022-10-19T23:59:09.743Z,2.75
